Buffalo, WY (82834)

3:26 PM MST on February 21, 2017 (GMT -0700)
Buffalo | | Change Station
Active Advisory: High Wind Warning Active Notice: Public Information Statement

Elev 4708 ft 44.34 °N, 106.70 °W | Updated 10 seconds ago

Scattered Clouds
Scattered Clouds
54.3 °F
Feels Like 54.3 °F
N
9.6
Wind Variable Wind from SW
Gusts 12.3 mph

Today
High -- | Low -- °F
--% Chance of Precip.
Yesterday
High -- | Low -- °F
Precip. -- in
Pressure 29.66 in
Visibility 10.0 miles
Clouds Few 3600 ft
Few 6000 ft
Scattered Clouds 12000 ft
Dew Point 35 °F
Humidity 48%
Rainfall 0.00 in
Snow Depth Not available.
6:56 AM 5:44 PM
Waning Crescent, 22% visible
METAR KBYG 212153Z AUTO 20014G18KT 10SM FEW036 FEW060 SCT120 14/M03 A2973 RMK AO2 SLP044 T01391028
Pressure 29.66 in
Visibility 10.0 miles
Clouds Few 3600 ft
Few 6000 ft
Scattered Clouds 12000 ft
Dew Point 35 °F
Humidity 48%
Rainfall 0.00 in
Snow Depth Not available.
6:56 AM 5:44 PM
Waning Crescent, 22% visible
METAR KBYG 212153Z AUTO 20014G18KT 10SM FEW036 FEW060 SCT120 14/M03 A2973 RMK AO2 SLP044 T01391028

Get Your Daily Forecast Email!

Thanks for signing up!

Be on the lookout for a verification email in your inbox.

You'll start receiving the daily forecast at 8 AM.

×

10-Day Weather Forecast

Almanac

Astronomy

Feb. 21, 2017 Rise Set
Actual Time
Civil Twilight
Nautical Twilight
Astronomical Twilight
Moon
Length of Visible Light
Length of Day
Tomorrow will be .
, % of the Moon is Illuminated

Today's Extremes

State Highs State Lows

Community

WunderPhotos

Upload Photos

1,962,540 photos uploaded!

WunderBlog® & News

Nearby

Air Quality

  Air Quality AQ Index Pollutant
Not available.

Snow Depth

Station Depth Elevation

Earthquake Activity

City Distance Mag. Time & Date
Minimum magnitude displayed is 2.5.

Coastal Water Temperatures

Place Temperature

Stations

Nearby Weather Stations

Station Location Temp. Windchill Dew Point Humidity Wind Precip. Elev Updated Type
                   

Watches & Warnings

High Wind Warning
Issued: 1:57 PM MST Feb. 21, 2017 – National Weather Service

... High Wind Warning remains in effect until 11 PM MST this
evening...

* timing... high winds are still expected at times through the
evening hours.

* Winds... west to southwest 20 to 40 mph with some gusts to 65
mph. Gusts to 75 mph will occur on the eastern slopes of the
Bighorn Mountains.

* Impacts... strong cross winds will produce an extreme blow over
hazard for light weight and high profile vehicles. This
includes interstates 25 and 90.

Precautionary/preparedness actions...

A High Wind Warning means a hazardous high wind event is expected
or occurring.